sensor_id;sensor_type;location;lat;lon;timestamp;P1;durP1;ratioP1;P2;durP2;ratioP2
17024;SDS011;8629;42.496;25.620;2023-07-13T00:00:34;13.00;;;11.73;;
17024;SDS011;8629;42.496;25.620;2023-07-13T00:03:03;11.93;;;10.73;;
17024;SDS011;8629;42.496;25.620;2023-07-13T00:05:30;12.60;;;10.43;;
17024;SDS011;8629;42.496;25.620;2023-07-13T00:07:57;11.27;;;10.13;;
17024;SDS011;8629;42.496;25.620;2023-07-13T00:10:24;12.37;;;11.07;;
17024;SDS011;8629;42.496;25.620;2023-07-13T00:12:51;13.13;;;11.93;;
17024;SDS011;8629;42.496;25.620;2023-07-13T00:15:21;13.33;;;11.90;;
17024;SDS011;8629;42.496;25.620;2023-07-13T00:17:48;14.97;;;11.57;;
17024;SDS011;8629;42.496;25.620;2023-07-13T00:20:17;13.10;;;11.10;;
17024;SDS011;8629;42.496;25.620;2023-07-13T00:22:46;17.23;;;11.43;;
17024;SDS011;8629;42.496;25.620;2023-07-13T00:25:13;11.63;;;10.30;;
17024;SDS011;8629;42.496;25.620;2023-07-13T00:27:41;11.33;;;10.23;;
17024;SDS011;8629;42.496;25.620;2023-07-13T00:30:09;11.70;;;10.60;;
17024;SDS011;8629;42.496;25.620;2023-07-13T00:32:37;11.47;;;10.20;;
17024;SDS011;8629;42.496;25.620;2023-07-13T00:35:04;12.50;;;11.37;;
17024;SDS011;8629;42.496;25.620;2023-07-13T00:37:33;11.40;;;10.27;;
17024;SDS011;8629;42.496;25.620;2023-07-13T00:40:00;12.20;;;11.10;;
17024;SDS011;8629;42.496;25.620;2023-07-13T00:42:28;11.50;;;10.33;;
17024;SDS011;8629;42.496;25.620;2023-07-13T00:45:02;11.53;;;10.37;;
17024;SDS011;8629;42.496;25.620;2023-07-13T00:47:34;11.90;;;10.77;;
17024;SDS011;8629;42.496;25.620;2023-07-13T00:50:00;11.70;;;10.60;;
17024;SDS011;8629;42.496;25.620;2023-07-13T00:52:28;13.43;;;10.80;;
17024;SDS011;8629;42.496;25.620;2023-07-13T00:54:57;13.60;;;10.50;;
17024;SDS011;8629;42.496;25.620;2023-07-13T00:57:24;14.77;;;9.90;;
17024;SDS011;8629;42.496;25.620;2023-07-13T00:59:52;11.07;;;9.90;;
17024;SDS011;8629;42.496;25.620;2023-07-13T01:02:20;19.70;;;11.73;;
17024;SDS011;8629;42.496;25.620;2023-07-13T01:04:47;13.53;;;11.13;;
17024;SDS011;8629;42.496;25.620;2023-07-13T01:07:14;13.43;;;10.60;;
17024;SDS011;8629;42.496;25.620;2023-07-13T01:09:41;12.30;;;11.00;;
17024;SDS011;8629;42.496;25.620;2023-07-13T01:12:11;12.50;;;11.33;;
17024;SDS011;8629;42.496;25.620;2023-07-13T01:14:38;12.60;;;11.40;;
17024;SDS011;8629;42.496;25.620;2023-07-13T01:17:06;12.40;;;10.63;;
17024;SDS011;8629;42.496;25.620;2023-07-13T01:19:36;11.47;;;10.20;;
17024;SDS011;8629;42.496;25.620;2023-07-13T01:22:06;13.03;;;10.70;;
17024;SDS011;8629;42.496;25.620;2023-07-13T01:24:36;11.43;;;10.33;;
17024;SDS011;8629;42.496;25.620;2023-07-13T01:27:04;12.43;;;10.73;;
17024;SDS011;8629;42.496;25.620;2023-07-13T01:29:32;12.67;;;11.27;;
17024;SDS011;8629;42.496;25.620;2023-07-13T01:32:00;12.63;;;11.37;;
17024;SDS011;8629;42.496;25.620;2023-07-13T01:34:27;12.93;;;11.80;;
17024;SDS011;8629;42.496;25.620;2023-07-13T01:36:54;12.07;;;10.80;;
17024;SDS011;8629;42.496;25.620;2023-07-13T01:39:22;15.07;;;10.67;;
17024;SDS011;8629;42.496;25.620;2023-07-13T01:41:49;12.43;;;11.23;;
17024;SDS011;8629;42.496;25.620;2023-07-13T01:44:16;13.17;;;11.87;;
17024;SDS011;8629;42.496;25.620;2023-07-13T01:46:43;12.73;;;11.43;;
17024;SDS011;8629;42.496;25.620;2023-07-13T01:49:09;13.33;;;12.03;;
17024;SDS011;8629;42.496;25.620;2023-07-13T01:51:36;12.53;;;11.33;;
17024;SDS011;8629;42.496;25.620;2023-07-13T01:54:03;11.53;;;10.43;;
17024;SDS011;8629;42.496;25.620;2023-07-13T01:56:31;13.57;;;12.27;;
17024;SDS011;8629;42.496;25.620;2023-07-13T01:58:58;12.50;;;11.30;;
17024;SDS011;8629;42.496;25.620;2023-07-13T02:01:25;11.77;;;10.57;;
17024;SDS011;8629;42.496;25.620;2023-07-13T02:03:51;11.87;;;10.67;;
17024;SDS011;8629;42.496;25.620;2023-07-13T02:06:18;12.03;;;10.87;;
17024;SDS011;8629;42.496;25.620;2023-07-13T02:08:45;14.77;;;11.30;;
17024;SDS011;8629;42.496;25.620;2023-07-13T02:11:12;12.70;;;11.50;;
17024;SDS011;8629;42.496;25.620;2023-07-13T02:13:40;11.60;;;10.37;;
17024;SDS011;8629;42.496;25.620;2023-07-13T02:16:07;12.47;;;11.27;;
17024;SDS011;8629;42.496;25.620;2023-07-13T02:18:34;12.77;;;11.27;;
17024;SDS011;8629;42.496;25.620;2023-07-13T02:21:00;12.90;;;11.33;;
17024;SDS011;8629;42.496;25.620;2023-07-13T02:23:27;15.10;;;11.47;;
17024;SDS011;8629;42.496;25.620;2023-07-13T02:25:55;14.63;;;11.50;;
17024;SDS011;8629;42.496;25.620;2023-07-13T02:28:22;17.57;;;11.30;;
17024;SDS011;8629;42.496;25.620;2023-07-13T02:30:50;14.57;;;11.40;;
17024;SDS011;8629;42.496;25.620;2023-07-13T02:33:19;12.73;;;11.47;;
17024;SDS011;8629;42.496;25.620;2023-07-13T02:35:50;14.00;;;12.77;;
17024;SDS011;8629;42.496;25.620;2023-07-13T02:38:17;12.40;;;10.83;;
17024;SDS011;8629;42.496;25.620;2023-07-13T02:40:45;12.70;;;11.40;;
17024;SDS011;8629;42.496;25.620;2023-07-13T02:43:12;13.00;;;11.70;;
17024;SDS011;8629;42.496;25.620;2023-07-13T02:45:43;15.00;;;11.50;;
17024;SDS011;8629;42.496;25.620;2023-07-13T02:48:13;13.53;;;11.47;;
17024;SDS011;8629;42.496;25.620;2023-07-13T02:50:40;13.27;;;11.87;;
17024;SDS011;8629;42.496;25.620;2023-07-13T02:53:07;13.13;;;10.70;;
17024;SDS011;8629;42.496;25.620;2023-07-13T02:55:34;12.57;;;11.30;;
17024;SDS011;8629;42.496;25.620;2023-07-13T02:58:01;16.13;;;12.10;;
17024;SDS011;8629;42.496;25.620;2023-07-13T03:00:28;11.63;;;10.53;;
17024;SDS011;8629;42.496;25.620;2023-07-13T03:02:56;12.33;;;11.20;;
17024;SDS011;8629;42.496;25.620;2023-07-13T03:05:24;11.33;;;10.23;;
17024;SDS011;8629;42.496;25.620;2023-07-13T03:07:51;14.47;;;11.23;;
17024;SDS011;8629;42.496;25.620;2023-07-13T03:10:18;13.00;;;11.47;;
17024;SDS011;8629;42.496;25.620;2023-07-13T03:12:46;11.97;;;10.77;;
17024;SDS011;8629;42.496;25.620;2023-07-13T03:15:13;16.57;;;11.77;;
17024;SDS011;8629;42.496;25.620;2023-07-13T03:17:40;12.73;;;11.47;;
17024;SDS011;8629;42.496;25.620;2023-07-13T03:20:07;11.47;;;10.37;;
17024;SDS011;8629;42.496;25.620;2023-07-13T03:22:36;14.70;;;11.50;;
17024;SDS011;8629;42.496;25.620;2023-07-13T03:25:03;12.63;;;10.90;;
17024;SDS011;8629;42.496;25.620;2023-07-13T03:27:31;12.57;;;11.37;;
17024;SDS011;8629;42.496;25.620;2023-07-13T03:29:58;15.33;;;12.37;;
17024;SDS011;8629;42.496;25.620;2023-07-13T03:32:26;14.20;;;12.63;;
17024;SDS011;8629;42.496;25.620;2023-07-13T03:34:53;11.53;;;10.53;;
17024;SDS011;8629;42.496;25.620;2023-07-13T03:37:20;11.87;;;10.83;;
17024;SDS011;8629;42.496;25.620;2023-07-13T03:39:48;13.97;;;11.30;;
17024;SDS011;8629;42.496;25.620;2023-07-13T03:42:16;11.97;;;10.80;;
17024;SDS011;8629;42.496;25.620;2023-07-13T03:44:43;12.43;;;11.27;;
17024;SDS011;8629;42.496;25.620;2023-07-13T03:47:17;12.17;;;10.97;;
17024;SDS011;8629;42.496;25.620;2023-07-13T03:49:46;12.43;;;11.23;;
17024;SDS011;8629;42.496;25.620;2023-07-13T03:52:13;15.17;;;11.37;;
17024;SDS011;8629;42.496;25.620;2023-07-13T03:54:41;12.90;;;11.50;;
17024;SDS011;8629;42.496;25.620;2023-07-13T03:57:09;12.70;;;11.40;;
17024;SDS011;8629;42.496;25.620;2023-07-13T03:59:36;12.53;;;11.23;;
17024;SDS011;8629;42.496;25.620;2023-07-13T04:02:04;15.00;;;11.87;;
17024;SDS011;8629;42.496;25.620;2023-07-13T04:04:31;14.30;;;12.90;;
17024;SDS011;8629;42.496;25.620;2023-07-13T04:06:58;13.53;;;12.10;;
17024;SDS011;8629;42.496;25.620;2023-07-13T04:09:25;14.07;;;12.37;;
17024;SDS011;8629;42.496;25.620;2023-07-13T04:11:52;13.33;;;12.03;;
17024;SDS011;8629;42.496;25.620;2023-07-13T04:14:21;14.10;;;12.67;;
17024;SDS011;8629;42.496;25.620;2023-07-13T04:16:48;12.53;;;11.33;;
17024;SDS011;8629;42.496;25.620;2023-07-13T04:19:15;14.37;;;12.50;;
17024;SDS011;8629;42.496;25.620;2023-07-13T04:21:43;13.53;;;12.20;;
17024;SDS011;8629;42.496;25.620;2023-07-13T04:24:10;12.57;;;11.37;;
17024;SDS011;8629;42.496;25.620;2023-07-13T04:26:37;13.90;;;12.60;;
17024;SDS011;8629;42.496;25.620;2023-07-13T04:29:05;13.33;;;11.20;;
17024;SDS011;8629;42.496;25.620;2023-07-13T04:31:33;12.73;;;11.57;;
17024;SDS011;8629;42.496;25.620;2023-07-13T04:34:01;16.07;;;12.67;;
17024;SDS011;8629;42.496;25.620;2023-07-13T04:36:28;12.43;;;11.17;;
17024;SDS011;8629;42.496;25.620;2023-07-13T04:38:55;13.27;;;11.97;;
17024;SDS011;8629;42.496;25.620;2023-07-13T04:41:22;12.30;;;11.00;;
17024;SDS011;8629;42.496;25.620;2023-07-13T04:43:49;11.73;;;10.17;;
17024;SDS011;8629;42.496;25.620;2023-07-13T04:46:17;12.17;;;10.93;;
17024;SDS011;8629;42.496;25.620;2023-07-13T04:48:46;16.90;;;11.20;;
17024;SDS011;8629;42.496;25.620;2023-07-13T04:51:16;12.03;;;10.93;;
17024;SDS011;8629;42.496;25.620;2023-07-13T04:53:43;11.57;;;10.47;;
17024;SDS011;8629;42.496;25.620;2023-07-13T04:56:10;11.80;;;10.70;;
17024;SDS011;8629;42.496;25.620;2023-07-13T04:58:37;13.23;;;11.27;;
17024;SDS011;8629;42.496;25.620;2023-07-13T05:01:05;13.40;;;10.80;;
17024;SDS011;8629;42.496;25.620;2023-07-13T05:03:33;12.53;;;11.30;;
17024;SDS011;8629;42.496;25.620;2023-07-13T05:06:02;11.70;;;10.70;;
17024;SDS011;8629;42.496;25.620;2023-07-13T05:08:30;12.57;;;11.37;;
17024;SDS011;8629;42.496;25.620;2023-07-13T05:10:58;12.40;;;11.10;;
17024;SDS011;8629;42.496;25.620;2023-07-13T05:13:26;12.77;;;11.67;;
17024;SDS011;8629;42.496;25.620;2023-07-13T05:15:56;12.67;;;11.33;;
17024;SDS011;8629;42.496;25.620;2023-07-13T05:18:24;13.30;;;11.17;;
17024;SDS011;8629;42.496;25.620;2023-07-13T05:20:57;12.17;;;10.97;;
17024;SDS011;8629;42.496;25.620;2023-07-13T05:23:27;14.33;;;11.90;;
17024;SDS011;8629;42.496;25.620;2023-07-13T05:25:54;15.53;;;11.63;;
17024;SDS011;8629;42.496;25.620;2023-07-13T05:28:21;11.10;;;10.03;;
17024;SDS011;8629;42.496;25.620;2023-07-13T05:30:48;13.73;;;11.90;;
17024;SDS011;8629;42.496;25.620;2023-07-13T05:33:16;16.95;;;10.95;;
17024;SDS011;8629;42.496;25.620;2023-07-13T05:35:43;16.97;;;11.60;;
17024;SDS011;8629;42.496;25.620;2023-07-13T05:38:10;25.20;;;12.30;;
17024;SDS011;8629;42.496;25.620;2023-07-13T05:40:38;17.57;;;11.63;;
17024;SDS011;8629;42.496;25.620;2023-07-13T05:43:04;13.30;;;11.17;;
17024;SDS011;8629;42.496;25.620;2023-07-13T05:45:31;11.90;;;10.73;;
17024;SDS011;8629;42.496;25.620;2023-07-13T05:47:58;12.57;;;11.10;;
17024;SDS011;8629;42.496;25.620;2023-07-13T05:50:25;11.50;;;10.27;;
17024;SDS011;8629;42.496;25.620;2023-07-13T05:52:52;12.07;;;10.88;;
17024;SDS011;8629;42.496;25.620;2023-07-13T05:55:19;11.63;;;10.40;;
17024;SDS011;8629;42.496;25.620;2023-07-13T05:57:47;13.52;;;10.38;;
17024;SDS011;8629;42.496;25.620;2023-07-13T06:00:14;11.15;;;9.93;;
17024;SDS011;8629;42.496;25.620;2023-07-13T06:02:42;11.02;;;9.85;;
17024;SDS011;8629;42.496;25.620;2023-07-13T06:05:09;10.52;;;9.52;;
17024;SDS011;8629;42.496;25.620;2023-07-13T06:07:36;12.00;;;10.63;;
17024;SDS011;8629;42.496;25.620;2023-07-13T06:10:02;11.52;;;10.48;;
17024;SDS011;8629;42.496;25.620;2023-07-13T06:12:30;11.48;;;10.38;;
17024;SDS011;8629;42.496;25.620;2023-07-13T06:14:58;13.77;;;10.60;;
17024;SDS011;8629;42.496;25.620;2023-07-13T06:17:24;14.38;;;10.60;;
17024;SDS011;8629;42.496;25.620;2023-07-13T06:19:51;10.98;;;9.88;;
17024;SDS011;8629;42.496;25.620;2023-07-13T06:22:18;11.50;;;9.90;;
17024;SDS011;8629;42.496;25.620;2023-07-13T06:24:45;11.32;;;10.23;;
17024;SDS011;8629;42.496;25.620;2023-07-13T06:27:12;11.68;;;10.43;;
17024;SDS011;8629;42.496;25.620;2023-07-13T06:29:39;10.82;;;9.25;;
17024;SDS011;8629;42.496;25.620;2023-07-13T06:32:08;14.55;;;9.52;;
17024;SDS011;8629;42.496;25.620;2023-07-13T06:34:35;11.27;;;9.93;;
17024;SDS011;8629;42.496;25.620;2023-07-13T06:37:01;11.68;;;9.82;;
17024;SDS011;8629;42.496;25.620;2023-07-13T06:39:28;10.18;;;8.80;;
17024;SDS011;8629;42.496;25.620;2023-07-13T06:41:55;9.48;;;8.65;;
17024;SDS011;8629;42.496;25.620;2023-07-13T06:44:22;10.18;;;9.18;;
17024;SDS011;8629;42.496;25.620;2023-07-13T06:46:48;10.07;;;9.07;;
17024;SDS011;8629;42.496;25.620;2023-07-13T06:49:17;12.10;;;9.35;;
17024;SDS011;8629;42.496;25.620;2023-07-13T06:51:43;9.77;;;8.48;;
17024;SDS011;8629;42.496;25.620;2023-07-13T06:54:10;10.05;;;8.98;;
17024;SDS011;8629;42.496;25.620;2023-07-13T06:56:37;11.25;;;9.32;;
17024;SDS011;8629;42.496;25.620;2023-07-13T06:59:04;11.70;;;9.80;;
17024;SDS011;8629;42.496;25.620;2023-07-13T07:01:30;10.95;;;9.15;;
17024;SDS011;8629;42.496;25.620;2023-07-13T07:03:57;12.63;;;9.80;;
17024;SDS011;8629;42.496;25.620;2023-07-13T07:06:25;10.20;;;9.13;;
17024;SDS011;8629;42.496;25.620;2023-07-13T07:08:53;14.80;;;9.32;;
17024;SDS011;8629;42.496;25.620;2023-07-13T07:11:21;11.25;;;10.15;;
17024;SDS011;8629;42.496;25.620;2023-07-13T07:13:50;9.30;;;8.45;;
17024;SDS011;8629;42.496;25.620;2023-07-13T07:16:16;9.93;;;8.93;;
17024;SDS011;8629;42.496;25.620;2023-07-13T07:18:43;10.82;;;9.60;;
17024;SDS011;8629;42.496;25.620;2023-07-13T07:21:10;9.85;;;8.85;;
17024;SDS011;8629;42.496;25.620;2023-07-13T07:23:43;12.18;;;8.93;;
17024;SDS011;8629;42.496;25.620;2023-07-13T07:26:10;14.07;;;10.05;;
17024;SDS011;8629;42.496;25.620;2023-07-13T07:28:37;12.93;;;10.00;;
17024;SDS011;8629;42.496;25.620;2023-07-13T07:31:04;11.07;;;9.88;;
17024;SDS011;8629;42.496;25.620;2023-07-13T07:33:32;9.75;;;8.75;;
17024;SDS011;8629;42.496;25.620;2023-07-13T07:35:59;10.82;;;9.02;;
17024;SDS011;8629;42.496;25.620;2023-07-13T07:38:26;9.95;;;9.05;;
17024;SDS011;8629;42.496;25.620;2023-07-13T07:40:54;10.48;;;9.13;;
17024;SDS011;8629;42.496;25.620;2023-07-13T07:43:21;10.75;;;9.50;;
17024;SDS011;8629;42.496;25.620;2023-07-13T07:45:48;9.73;;;8.82;;
17024;SDS011;8629;42.496;25.620;2023-07-13T07:48:15;10.80;;;9.75;;
17024;SDS011;8629;42.496;25.620;2023-07-13T07:50:41;10.15;;;9.20;;
17024;SDS011;8629;42.496;25.620;2023-07-13T07:53:09;10.70;;;9.60;;
17024;SDS011;8629;42.496;25.620;2023-07-13T07:55:36;10.75;;;9.63;;
17024;SDS011;8629;42.496;25.620;2023-07-13T07:58:04;13.32;;;8.98;;
17024;SDS011;8629;42.496;25.620;2023-07-13T08:00:32;10.50;;;9.50;;
17024;SDS011;8629;42.496;25.620;2023-07-13T08:03:00;12.70;;;9.27;;
17024;SDS011;8629;42.496;25.620;2023-07-13T08:05:28;10.40;;;9.13;;
17024;SDS011;8629;42.496;25.620;2023-07-13T08:07:55;9.63;;;8.80;;
17024;SDS011;8629;42.496;25.620;2023-07-13T08:10:22;10.00;;;9.05;;
17024;SDS011;8629;42.496;25.620;2023-07-13T08:12:49;9.35;;;8.55;;
17024;SDS011;8629;42.496;25.620;2023-07-13T08:15:17;11.50;;;8.95;;
17024;SDS011;8629;42.496;25.620;2023-07-13T08:17:46;12.18;;;9.80;;
17024;SDS011;8629;42.496;25.620;2023-07-13T08:20:13;11.05;;;9.38;;
17024;SDS011;8629;42.496;25.620;2023-07-13T08:22:40;13.52;;;9.80;;
17024;SDS011;8629;42.496;25.620;2023-07-13T08:25:07;11.57;;;10.32;;
17024;SDS011;8629;42.496;25.620;2023-07-13T08:27:35;9.80;;;8.77;;
17024;SDS011;8629;42.496;25.620;2023-07-13T08:30:02;10.57;;;9.57;;
17024;SDS011;8629;42.496;25.620;2023-07-13T08:32:32;10.07;;;9.07;;
17024;SDS011;8629;42.496;25.620;2023-07-13T08:34:59;11.13;;;9.45;;
17024;SDS011;8629;42.496;25.620;2023-07-13T08:37:25;12.75;;;8.43;;
17024;SDS011;8629;42.496;25.620;2023-07-13T08:39:52;9.63;;;8.73;;
17024;SDS011;8629;42.496;25.620;2023-07-13T08:42:22;10.13;;;9.07;;
17024;SDS011;8629;42.496;25.620;2023-07-13T08:45:01;10.70;;;8.55;;
17024;SDS011;8629;42.496;25.620;2023-07-13T08:47:46;10.13;;;9.10;;
17024;SDS011;8629;42.496;25.620;2023-07-13T08:50:16;10.93;;;8.82;;
17024;SDS011;8629;42.496;25.620;2023-07-13T08:52:46;11.80;;;9.40;;
17024;SDS011;8629;42.496;25.620;2023-07-13T08:55:14;9.80;;;8.88;;
17024;SDS011;8629;42.496;25.620;2023-07-13T08:57:44;10.73;;;9.65;;
17024;SDS011;8629;42.496;25.620;2023-07-13T09:00:14;12.02;;;9.50;;
17024;SDS011;8629;42.496;25.620;2023-07-13T09:02:42;9.55;;;8.68;;
17024;SDS011;8629;42.496;25.620;2023-07-13T09:05:15;14.45;;;10.27;;
17024;SDS011;8629;42.496;25.620;2023-07-13T09:07:50;13.18;;;9.98;;
17024;SDS011;8629;42.496;25.620;2023-07-13T09:10:26;10.90;;;9.88;;
17024;SDS011;8629;42.496;25.620;2023-07-13T09:12:59;12.02;;;10.13;;
17024;SDS011;8629;42.496;25.620;2023-07-13T09:15:37;15.30;;;12.15;;
17024;SDS011;8629;42.496;25.620;2023-07-13T09:18:08;11.80;;;10.68;;
17024;SDS011;8629;42.496;25.620;2023-07-13T09:20:39;16.42;;;9.48;;
17024;SDS011;8629;42.496;25.620;2023-07-13T09:23:12;10.60;;;9.73;;
17024;SDS011;8629;42.496;25.620;2023-07-13T09:25:40;10.07;;;9.18;;
17024;SDS011;8629;42.496;25.620;2023-07-13T09:28:10;12.57;;;10.40;;
17024;SDS011;8629;42.496;25.620;2023-07-13T09:30:40;12.82;;;10.27;;
17024;SDS011;8629;42.496;25.620;2023-07-13T09:33:15;10.05;;;9.05;;
17024;SDS011;8629;42.496;25.620;2023-07-13T09:35:42;12.13;;;9.38;;
17024;SDS011;8629;42.496;25.620;2023-07-13T09:38:13;10.00;;;9.10;;
17024;SDS011;8629;42.496;25.620;2023-07-13T09:40:44;10.40;;;9.48;;
17024;SDS011;8629;42.496;25.620;2023-07-13T09:43:16;10.43;;;9.27;;
17024;SDS011;8629;42.496;25.620;2023-07-13T09:45:45;11.07;;;10.18;;
17024;SDS011;8629;42.496;25.620;2023-07-13T09:48:13;10.27;;;9.38;;
17024;SDS011;8629;42.496;25.620;2023-07-13T09:50:42;11.80;;;10.70;;
17024;SDS011;8629;42.496;25.620;2023-07-13T09:53:13;12.80;;;10.63;;
17024;SDS011;8629;42.496;25.620;2023-07-13T09:55:41;11.10;;;10.05;;
17024;SDS011;8629;42.496;25.620;2023-07-13T09:58:09;11.40;;;10.25;;
17024;SDS011;8629;42.496;25.620;2023-07-13T10:00:38;11.45;;;10.35;;
17024;SDS011;8629;42.496;25.620;2023-07-13T10:03:09;12.25;;;10.30;;
17024;SDS011;8629;42.496;25.620;2023-07-13T10:05:44;12.13;;;11.02;;
17024;SDS011;8629;42.496;25.620;2023-07-13T10:08:17;12.93;;;10.75;;
17024;SDS011;8629;42.496;25.620;2023-07-13T10:10:45;11.18;;;10.07;;
17024;SDS011;8629;42.496;25.620;2023-07-13T10:13:29;11.07;;;9.98;;
17024;SDS011;8629;42.496;25.620;2023-07-13T10:15:59;9.40;;;8.68;;
17024;SDS011;8629;42.496;25.620;2023-07-13T10:18:26;8.70;;;7.93;;
17024;SDS011;8629;42.496;25.620;2023-07-13T10:20:58;10.20;;;8.13;;
17024;SDS011;8629;42.496;25.620;2023-07-13T10:23:35;11.88;;;8.57;;
17024;SDS011;8629;42.496;25.620;2023-07-13T10:26:02;10.10;;;8.02;;
17024;SDS011;8629;42.496;25.620;2023-07-13T10:28:30;9.40;;;8.50;;
17024;SDS011;8629;42.496;25.620;2023-07-13T10:30:59;8.68;;;7.78;;
17024;SDS011;8629;42.496;25.620;2023-07-13T10:33:27;8.73;;;8.02;;
17024;SDS011;8629;42.496;25.620;2023-07-13T10:35:56;12.93;;;9.23;;
17024;SDS011;8629;42.496;25.620;2023-07-13T10:38:32;9.48;;;8.23;;
17024;SDS011;8629;42.496;25.620;2023-07-13T10:41:00;8.88;;;8.10;;
17024;SDS011;8629;42.496;25.620;2023-07-13T10:43:31;8.80;;;8.00;;
17024;SDS011;8629;42.496;25.620;2023-07-13T10:46:02;9.52;;;8.07;;
17024;SDS011;8629;42.496;25.620;2023-07-13T10:48:30;9.38;;;7.72;;
17024;SDS011;8629;42.496;25.620;2023-07-13T10:50:59;8.52;;;7.72;;
17024;SDS011;8629;42.496;25.620;2023-07-13T10:53:28;7.68;;;7.00;;
17024;SDS011;8629;42.496;25.620;2023-07-13T10:55:59;7.53;;;6.80;;
17024;SDS011;8629;42.496;25.620;2023-07-13T10:58:32;7.20;;;6.60;;
17024;SDS011;8629;42.496;25.620;2023-07-13T11:01:02;6.68;;;6.07;;
17024;SDS011;8629;42.496;25.620;2023-07-13T11:03:34;6.43;;;5.80;;
17024;SDS011;8629;42.496;25.620;2023-07-13T11:06:09;8.02;;;6.70;;
17024;SDS011;8629;42.496;25.620;2023-07-13T11:08:38;6.53;;;6.03;;
17024;SDS011;8629;42.496;25.620;2023-07-13T11:11:34;6.35;;;5.75;;
17024;SDS011;8629;42.496;25.620;2023-07-13T11:14:04;6.72;;;5.95;;
17024;SDS011;8629;42.496;25.620;2023-07-13T11:16:34;7.60;;;5.32;;
17024;SDS011;8629;42.496;25.620;2023-07-13T11:19:24;6.03;;;5.40;;
17024;SDS011;8629;42.496;25.620;2023-07-13T11:25:27;6.05;;;5.47;;
17024;SDS011;8629;42.496;25.620;2023-07-13T11:28:06;7.03;;;6.32;;
17024;SDS011;8629;42.496;25.620;2023-07-13T11:30:40;6.90;;;6.10;;
17024;SDS011;8629;42.496;25.620;2023-07-13T11:33:14;8.00;;;6.82;;
17024;SDS011;8629;42.496;25.620;2023-07-13T11:35:48;7.20;;;6.43;;
17024;SDS011;8629;42.496;25.620;2023-07-13T11:38:21;9.35;;;6.95;;
17024;SDS011;8629;42.496;25.620;2023-07-13T11:40:50;6.68;;;6.10;;
17024;SDS011;8629;42.496;25.620;2023-07-13T11:43:19;9.70;;;6.78;;
17024;SDS011;8629;42.496;25.620;2023-07-13T11:45:48;8.02;;;7.32;;
17024;SDS011;8629;42.496;25.620;2023-07-13T11:48:22;7.90;;;7.20;;
17024;SDS011;8629;42.496;25.620;2023-07-13T11:50:57;7.30;;;6.55;;
17024;SDS011;8629;42.496;25.620;2023-07-13T11:53:27;7.50;;;6.88;;
17024;SDS011;8629;42.496;25.620;2023-07-13T11:55:56;7.15;;;6.53;;
17024;SDS011;8629;42.496;25.620;2023-07-13T11:58:25;6.78;;;6.25;;
17024;SDS011;8629;42.496;25.620;2023-07-13T12:00:53;6.97;;;6.38;;
17024;SDS011;8629;42.496;25.620;2023-07-13T12:03:22;7.25;;;6.57;;
17024;SDS011;8629;42.496;25.620;2023-07-13T12:05:57;8.02;;;6.38;;
17024;SDS011;8629;42.496;25.620;2023-07-13T12:08:27;16.10;;;7.13;;
17024;SDS011;8629;42.496;25.620;2023-07-13T12:11:03;9.02;;;7.15;;
17024;SDS011;8629;42.496;25.620;2023-07-13T12:13:35;7.35;;;6.55;;
17024;SDS011;8629;42.496;25.620;2023-07-13T12:16:02;8.32;;;6.40;;
17024;SDS011;8629;42.496;25.620;2023-07-13T12:18:37;9.70;;;7.75;;
17024;SDS011;8629;42.496;25.620;2023-07-13T12:21:05;7.10;;;6.50;;
17024;SDS011;8629;42.496;25.620;2023-07-13T12:23:34;7.30;;;6.68;;
17024;SDS011;8629;42.496;25.620;2023-07-13T12:26:05;7.00;;;6.43;;
17024;SDS011;8629;42.496;25.620;2023-07-13T12:28:35;9.38;;;6.70;;
17024;SDS011;8629;42.496;25.620;2023-07-13T12:31:04;7.15;;;6.45;;
17024;SDS011;8629;42.496;25.620;2023-07-13T12:33:32;9.25;;;7.25;;
17024;SDS011;8629;42.496;25.620;2023-07-13T12:36:00;8.50;;;6.85;;
17024;SDS011;8629;42.496;25.620;2023-07-13T12:38:29;9.32;;;6.55;;
17024;SDS011;8629;42.496;25.620;2023-07-13T12:40:58;8.27;;;7.40;;
17024;SDS011;8629;42.496;25.620;2023-07-13T12:43:25;8.32;;;7.28;;
17024;SDS011;8629;42.496;25.620;2023-07-13T12:45:55;8.63;;;7.75;;
17024;SDS011;8629;42.496;25.620;2023-07-13T12:48:24;10.55;;;8.10;;
17024;SDS011;8629;42.496;25.620;2023-07-13T12:50:51;8.55;;;7.30;;
17024;SDS011;8629;42.496;25.620;2023-07-13T12:53:20;7.75;;;6.82;;
17024;SDS011;8629;42.496;25.620;2023-07-13T12:55:48;8.75;;;7.30;;
17024;SDS011;8629;42.496;25.620;2023-07-13T12:58:22;10.73;;;7.63;;
17024;SDS011;8629;42.496;25.620;2023-07-13T13:00:53;7.22;;;6.53;;
17024;SDS011;8629;42.496;25.620;2023-07-13T13:03:22;7.15;;;6.40;;
17024;SDS011;8629;42.496;25.620;2023-07-13T13:05:59;7.78;;;7.10;;
17024;SDS011;8629;42.496;25.620;2023-07-13T13:08:29;7.65;;;6.70;;
17024;SDS011;8629;42.496;25.620;2023-07-13T13:10:56;8.40;;;7.18;;
17024;SDS011;8629;42.496;25.620;2023-07-13T13:13:25;8.48;;;6.90;;
17024;SDS011;8629;42.496;25.620;2023-07-13T13:15:51;8.05;;;6.65;;
17024;SDS011;8629;42.496;25.620;2023-07-13T13:18:19;10.93;;;7.60;;
17024;SDS011;8629;42.496;25.620;2023-07-13T13:20:47;6.95;;;6.35;;
17024;SDS011;8629;42.496;25.620;2023-07-13T13:23:14;8.13;;;6.35;;
17024;SDS011;8629;42.496;25.620;2023-07-13T13:25:42;11.85;;;7.43;;
17024;SDS011;8629;42.496;25.620;2023-07-13T13:28:12;8.40;;;7.57;;
17024;SDS011;8629;42.496;25.620;2023-07-13T13:30:41;10.27;;;6.38;;
17024;SDS011;8629;42.496;25.620;2023-07-13T13:33:11;7.13;;;6.50;;
17024;SDS011;8629;42.496;25.620;2023-07-13T13:35:39;10.20;;;7.47;;
17024;SDS011;8629;42.496;25.620;2023-07-13T13:38:09;8.15;;;6.50;;
17024;SDS011;8629;42.496;25.620;2023-07-13T13:40:39;10.65;;;7.03;;
17024;SDS011;8629;42.496;25.620;2023-07-13T13:43:13;8.32;;;7.13;;
17024;SDS011;8629;42.496;25.620;2023-07-13T13:45:42;8.55;;;6.85;;
17024;SDS011;8629;42.496;25.620;2023-07-13T13:48:13;10.52;;;7.15;;
17024;SDS011;8629;42.496;25.620;2023-07-13T13:50:40;10.60;;;6.65;;
17024;SDS011;8629;42.496;25.620;2023-07-13T13:53:09;8.25;;;6.50;;
17024;SDS011;8629;42.496;25.620;2023-07-13T13:55:37;10.85;;;7.65;;
17024;SDS011;8629;42.496;25.620;2023-07-13T13:58:04;7.70;;;7.07;;
17024;SDS011;8629;42.496;25.620;2023-07-13T14:00:31;7.53;;;6.20;;
17024;SDS011;8629;42.496;25.620;2023-07-13T14:02:59;9.40;;;6.70;;
17024;SDS011;8629;42.496;25.620;2023-07-13T14:05:26;15.07;;;7.07;;
17024;SDS011;8629;42.496;25.620;2023-07-13T14:07:55;7.45;;;6.70;;
17024;SDS011;8629;42.496;25.620;2023-07-13T14:10:22;9.93;;;6.93;;
17024;SDS011;8629;42.496;25.620;2023-07-13T14:12:50;9.63;;;7.97;;
17024;SDS011;8629;42.496;25.620;2023-07-13T14:22:03;10.75;;;7.25;;
17024;SDS011;8629;42.496;25.620;2023-07-13T14:24:30;12.90;;;8.25;;
17024;SDS011;8629;42.496;25.620;2023-07-13T14:26:57;10.98;;;6.97;;
17024;SDS011;8629;42.496;25.620;2023-07-13T14:29:23;9.40;;;6.53;;
17024;SDS011;8629;42.496;25.620;2023-07-13T14:31:50;15.45;;;7.72;;
17024;SDS011;8629;42.496;25.620;2023-07-13T14:34:17;11.15;;;6.68;;
17024;SDS011;8629;42.496;25.620;2023-07-13T14:36:44;11.38;;;7.35;;
17024;SDS011;8629;42.496;25.620;2023-07-13T14:39:14;9.52;;;6.97;;
17024;SDS011;8629;42.496;25.620;2023-07-13T14:41:42;9.40;;;6.70;;
17024;SDS011;8629;42.496;25.620;2023-07-13T14:44:11;10.88;;;6.53;;
17024;SDS011;8629;42.496;25.620;2023-07-13T14:46:38;8.27;;;7.00;;
17024;SDS011;8629;42.496;25.620;2023-07-13T14:49:06;9.95;;;6.75;;